Time;durP1;ratioP1;P1;durP2;ratioP2;P2;SDS_P1;SDS_P2;PMS_P1;PMS_P2;Temp;Humidity;BMP_temperature;BMP_pressure;BME280_temperature;BME280_humidity;BME280_pressure;Samples;Min_cycle;Max_cycle;Signal;HPM_P1;HPM_P2
2022/10/10 00:00:48;;;;;;;;;;;15.00;99.90;;;;;;6183325;23;19928;-86
2022/10/10 00:03:16;;;;;;;;;;;15.10;99.90;;;;;;6182808;23;19943;-88
2022/10/10 00:05:58;;;;;;;;;;;15.00;99.90;;;;;;6183143;23;19925;-88
2022/10/10 00:08:24;;;;;;;;;;;15.00;99.90;;;;;;6182939;23;19920;-87
2022/10/10 00:10:51;;;;;;;;;;;15.10;99.90;;;;;;6183191;23;19927;-89
2022/10/10 00:13:18;;;;;;;;;;;15.00;99.90;;;;;;6182397;23;20264;-87
2022/10/10 00:15:44;;;;;;;;;;;15.00;99.90;;;;;;6183140;23;19944;-87
2022/10/10 00:18:14;;;;;;;;;;;15.00;99.90;;;;;;6182492;23;19971;-84
2022/10/10 00:20:41;;;;;;;;;;;15.00;99.90;;;;;;6183070;23;19995;-86
2022/10/10 00:23:08;;;;;;;;;;;15.00;99.90;;;;;;6183443;23;19967;-85
2022/10/10 00:25:35;;;;;;;;;;;15.00;99.90;;;;;;6182581;23;19947;-85
2022/10/10 00:28:03;;;;;;;;;;;15.00;99.90;;;;;;6183001;23;19924;-85
2022/10/10 00:30:30;;;;;;;;;;;15.00;99.90;;;;;;6182394;23;19971;-85
2022/10/10 00:32:57;;;;;;;;;;;15.00;99.90;;;;;;6183149;23;19930;-85
2022/10/10 00:35:24;;;;;;;;;;;15.00;99.90;;;;;;6182488;23;20333;-84
2022/10/10 00:37:50;;;;;;;;;;;15.00;99.90;;;;;;6184435;23;20256;-84
2022/10/10 00:40:18;;;;;;;;;;;15.00;99.90;;;;;;6182649;23;20260;-84
2022/10/10 00:42:44;;;;;;;;;;;15.00;99.90;;;;;;6186354;23;19920;-85
2022/10/10 00:45:28;;;;;;;;;;;15.00;99.90;;;;;;6184866;23;19921;-84
2022/10/10 00:48:01;;;;;;;;;;;15.00;99.90;;;;;;6184299;23;19921;-84
2022/10/10 00:50:28;;;;;;;;;;;15.00;99.90;;;;;;6185224;23;19927;-83
2022/10/10 00:52:55;;;;;;;;;;;14.90;99.90;;;;;;6183161;23;19927;-84
2022/10/10 00:55:22;;;;;;;;;;;14.90;99.90;;;;;;6184624;23;19924;-84
2022/10/10 00:57:49;;;;;;;;;;;14.90;99.90;;;;;;6183996;23;19935;-84
2022/10/10 01:00:16;;;;;;;;;;;14.80;99.90;;;;;;6187633;23;19926;-81
2022/10/10 01:02:43;;;;;;;;;;;14.90;99.90;;;;;;6185053;23;19920;-81
2022/10/10 01:05:10;;;;;;;;;;;14.80;99.90;;;;;;6184117;23;19939;-81
2022/10/10 01:07:37;;;;;;;;;;;14.90;99.90;;;;;;6183700;23;19920;-81
2022/10/10 01:10:11;;;;;;;;;;;14.90;99.90;;;;;;6185558;23;20253;-81
2022/10/10 01:12:38;;;;;;;;;;;14.90;99.90;;;;;;6183664;23;19990;-81
2022/10/10 01:15:21;;;;;;;;;;;14.90;99.90;;;;;;6184408;23;20022;-81
2022/10/10 01:18:06;;;;;;;;;;;14.90;99.90;;;;;;6183957;23;19931;-80
2022/10/10 01:20:36;;;;;;;;;;;14.90;99.90;;;;;;6183189;23;19920;-81
2022/10/10 01:23:02;;;;;;;;;;;14.90;99.90;;;;;;6184355;23;19998;-80
2022/10/10 01:25:38;;;;;;;;;;;14.90;99.90;;;;;;6183301;23;20253;-81
2022/10/10 01:28:16;;;;;;;;;;;14.90;99.90;;;;;;6183925;23;19920;-80
2022/10/10 01:30:43;;;;;;;;;;;14.90;99.90;;;;;;6182885;23;19930;-80
2022/10/10 01:33:14;;;;;;;;;;;14.80;99.90;;;;;;6184270;23;19995;-80
2022/10/10 01:35:50;;;;;;;;;;;14.80;99.90;;;;;;6183301;23;20337;-80
2022/10/10 01:38:30;;;;;;;;;;;14.90;99.90;;;;;;6183782;23;19995;-80
2022/10/10 01:41:18;;;;;;;;;;;14.90;99.90;;;;;;6183593;23;19935;-81
2022/10/10 01:43:45;;;;;;;;;;;14.90;99.90;;;;;;6183774;23;19931;-81
2022/10/10 01:46:13;;;;;;;;;;;14.90;99.90;;;;;;6183963;23;19920;-81
2022/10/10 01:48:40;;;;;;;;;;;14.80;99.90;;;;;;6183436;23;19924;-81
2022/10/10 01:51:26;;;;;;;;;;;14.80;99.90;;;;;;6183341;23;19920;-81
2022/10/10 01:54:11;;;;;;;;;;;14.80;99.90;;;;;;6182634;23;19995;-80
2022/10/10 01:56:46;;;;;;;;;;;14.80;99.90;;;;;;6182604;23;20003;-80
2022/10/10 01:59:13;;;;;;;;;;;14.80;99.90;;;;;;6183917;23;19920;-81
2022/10/10 02:01:45;;;;;;;;;;;14.80;99.90;;;;;;6182925;23;19924;-81
2022/10/10 02:04:18;;;;;;;;;;;14.80;99.90;;;;;;6183915;23;19920;-80
2022/10/10 02:06:50;;;;;;;;;;;14.80;99.90;;;;;;6182893;23;19973;-81
2022/10/10 02:09:20;;;;;;;;;;;14.80;99.90;;;;;;6183816;23;19921;-83
2022/10/10 02:11:47;;;;;;;;;;;14.80;99.90;;;;;;6183161;23;20313;-80
2022/10/10 02:14:17;;;;;;;;;;;14.80;99.90;;;;;;6183830;23;20405;-80
2022/10/10 02:16:45;;;;;;;;;;;14.80;99.90;;;;;;6182745;23;20404;-81
2022/10/10 02:19:15;;;;;;;;;;;14.80;99.90;;;;;;6183568;23;20249;-80
2022/10/10 02:21:42;;;;;;;;;;;14.80;99.90;;;;;;6182724;23;20360;-80
2022/10/10 02:24:10;;;;;;;;;;;14.80;99.90;;;;;;6183542;23;19959;-80
2022/10/10 02:26:38;;;;;;;;;;;14.80;99.90;;;;;;6183008;23;19953;-80
2022/10/10 02:29:13;;;;;;;;;;;14.80;99.90;;;;;;6182300;23;20378;-81
2022/10/10 02:31:42;;;;;;;;;;;14.80;99.90;;;;;;6182589;23;19924;-82
2022/10/10 02:34:16;;;;;;;;;;;14.80;99.90;;;;;;6183353;23;20259;-80
2022/10/10 02:36:54;;;;;;;;;;;14.80;99.90;;;;;;6182907;23;20288;-80
2022/10/10 02:39:24;;;;;;;;;;;14.80;99.90;;;;;;6183538;23;19921;-81
2022/10/10 02:41:51;;;;;;;;;;;14.80;99.90;;;;;;6182466;23;20281;-81
2022/10/10 02:44:18;;;;;;;;;;;14.70;99.90;;;;;;6183525;23;20351;-81
2022/10/10 02:46:45;;;;;;;;;;;14.80;99.90;;;;;;6182542;23;19928;-82
2022/10/10 02:49:11;;;;;;;;;;;14.70;99.90;;;;;;6184265;23;19920;-81
2022/10/10 02:51:38;;;;;;;;;;;14.80;99.90;;;;;;6182398;23;19980;-82
2022/10/10 02:54:05;;;;;;;;;;;14.70;99.90;;;;;;6183999;23;19948;-80
2022/10/10 02:56:32;;;;;;;;;;;14.80;99.90;;;;;;6182851;23;20241;-81
2022/10/10 02:58:59;;;;;;;;;;;14.80;99.90;;;;;;6183661;23;19930;-81
2022/10/10 03:01:26;;;;;;;;;;;14.80;99.90;;;;;;6183250;23;20004;-82
2022/10/10 03:03:53;;;;;;;;;;;14.80;99.90;;;;;;6182783;23;20238;-81
2022/10/10 03:06:19;;;;;;;;;;;14.80;99.90;;;;;;6183093;23;19999;-82
2022/10/10 03:08:46;;;;;;;;;;;14.80;99.90;;;;;;6182518;23;20003;-81
2022/10/10 03:11:13;;;;;;;;;;;14.80;99.90;;;;;;6183280;23;19920;-81
2022/10/10 03:13:39;;;;;;;;;;;14.80;99.90;;;;;;6183985;23;19924;-79
2022/10/10 03:16:06;;;;;;;;;;;14.70;99.90;;;;;;6183449;23;19943;-81
2022/10/10 03:18:33;;;;;;;;;;;14.70;99.90;;;;;;6183257;23;19927;-81
2022/10/10 03:20:59;;;;;;;;;;;14.70;99.90;;;;;;6182526;23;19932;-81
2022/10/10 03:23:26;;;;;;;;;;;14.70;99.90;;;;;;6183029;23;19930;-82
2022/10/10 03:25:53;;;;;;;;;;;14.70;99.90;;;;;;6181991;23;19920;-81
2022/10/10 03:28:20;;;;;;;;;;;14.60;99.90;;;;;;6183353;23;20261;-82
2022/10/10 03:30:47;;;;;;;;;;;14.60;99.90;;;;;;6182009;23;19924;-82
2022/10/10 03:33:14;;;;;;;;;;;14.60;99.90;;;;;;6183145;23;19940;-81
2022/10/10 03:35:40;;;;;;;;;;;14.60;99.90;;;;;;6183603;23;19924;-81
2022/10/10 03:38:09;;;;;;;;;;;14.70;99.90;;;;;;6183474;23;19991;-81
2022/10/10 03:40:37;;;;;;;;;;;14.70;99.90;;;;;;6183158;23;19924;-81
2022/10/10 03:43:04;;;;;;;;;;;14.60;99.90;;;;;;6182411;23;19924;-81
2022/10/10 03:45:30;;;;;;;;;;;14.60;99.90;;;;;;6182918;23;20000;-82
2022/10/10 03:47:57;;;;;;;;;;;14.70;99.90;;;;;;6182338;23;19926;-81
2022/10/10 03:50:24;;;;;;;;;;;14.70;99.90;;;;;;6182829;23;20257;-82
2022/10/10 03:52:50;;;;;;;;;;;14.70;99.90;;;;;;6181889;23;19920;-82
2022/10/10 03:55:18;;;;;;;;;;;14.70;99.90;;;;;;6182961;23;19970;-82
2022/10/10 03:57:44;;;;;;;;;;;14.70;99.90;;;;;;6182118;23;20333;-81
2022/10/10 04:00:12;;;;;;;;;;;14.70;99.90;;;;;;6182954;23;19924;-81
2022/10/10 04:02:38;;;;;;;;;;;14.70;99.90;;;;;;6183054;23;19926;-82
2022/10/10 04:05:05;;;;;;;;;;;14.70;99.90;;;;;;6182449;23;19992;-81
2022/10/10 04:07:32;;;;;;;;;;;14.70;99.90;;;;;;6183304;23;19921;-82
2022/10/10 04:09:59;;;;;;;;;;;14.70;99.90;;;;;;6182086;23;19999;-82
2022/10/10 04:12:25;;;;;;;;;;;14.70;99.90;;;;;;6182887;23;19920;-82
2022/10/10 04:14:52;;;;;;;;;;;14.70;99.90;;;;;;6182202;23;19920;-82
2022/10/10 04:17:19;;;;;;;;;;;14.70;99.90;;;;;;6184624;23;19921;-81
2022/10/10 04:19:45;;;;;;;;;;;14.60;99.90;;;;;;6183890;23;19924;-81
2022/10/10 04:22:13;;;;;;;;;;;14.70;99.90;;;;;;6184820;23;20345;-81
2022/10/10 04:24:40;;;;;;;;;;;14.60;99.90;;;;;;6184983;23;19999;-81
2022/10/10 04:27:07;;;;;;;;;;;14.60;99.90;;;;;;6184477;23;19991;-81
2022/10/10 04:29:33;;;;;;;;;;;14.60;99.90;;;;;;6184502;23;20412;-81
2022/10/10 04:32:00;;;;;;;;;;;14.60;99.90;;;;;;6183853;23;19921;-81
2022/10/10 04:34:27;;;;;;;;;;;14.60;99.90;;;;;;6184629;23;19995;-81
2022/10/10 04:36:54;;;;;;;;;;;14.60;99.90;;;;;;6183858;23;20248;-81
2022/10/10 04:39:21;;;;;;;;;;;14.60;99.90;;;;;;6184865;23;19924;-82
2022/10/10 04:41:50;;;;;;;;;;;14.60;99.90;;;;;;6183803;23;19999;-82
2022/10/10 04:44:17;;;;;;;;;;;14.60;99.90;;;;;;6186152;23;19963;-81
2022/10/10 04:46:45;;;;;;;;;;;14.60;99.90;;;;;;6183466;23;19920;-81
2022/10/10 04:49:11;;;;;;;;;;;14.60;99.90;;;;;;6184339;23;20300;-81
2022/10/10 04:51:38;;;;;;;;;;;14.60;99.90;;;;;;6183382;23;20002;-82
2022/10/10 04:54:05;;;;;;;;;;;14.60;99.90;;;;;;6183400;23;19924;-81
2022/10/10 04:56:32;;;;;;;;;;;14.60;99.90;;;;;;6184200;23;20317;-80
2022/10/10 04:58:58;;;;;;;;;;;14.60;99.90;;;;;;6182574;23;19931;-80
2022/10/10 05:01:25;;;;;;;;;;;14.60;99.90;;;;;;6184058;23;20003;-82
2022/10/10 05:03:52;;;;;;;;;;;14.60;99.90;;;;;;6182846;23;19920;-80
2022/10/10 05:06:19;;;;;;;;;;;14.60;99.90;;;;;;6183978;23;19943;-81
2022/10/10 05:08:46;;;;;;;;;;;14.60;99.90;;;;;;6182869;23;19948;-82
2022/10/10 05:11:13;;;;;;;;;;;14.60;99.90;;;;;;6184195;23;20268;-81
2022/10/10 05:13:39;;;;;;;;;;;14.60;99.90;;;;;;6184312;23;19948;-81
2022/10/10 05:16:06;;;;;;;;;;;14.60;99.90;;;;;;6183282;23;19921;-82
2022/10/10 05:18:36;;;;;;;;;;;14.60;99.90;;;;;;6184464;23;19920;-81
2022/10/10 05:21:02;;;;;;;;;;;14.60;99.90;;;;;;6184772;23;19921;-81
2022/10/10 05:23:29;;;;;;;;;;;14.60;99.90;;;;;;6184521;23;19927;-81
2022/10/10 05:25:56;;;;;;;;;;;14.60;99.90;;;;;;6182717;23;19924;-82
2022/10/10 05:28:23;;;;;;;;;;;14.60;99.90;;;;;;6182651;23;19995;-82
2022/10/10 05:30:50;;;;;;;;;;;14.60;99.90;;;;;;6182605;23;19920;-81
2022/10/10 05:33:17;;;;;;;;;;;14.70;99.90;;;;;;6183566;23;20000;-81
2022/10/10 05:35:44;;;;;;;;;;;14.70;99.90;;;;;;6183542;23;19943;-81
2022/10/10 05:38:10;;;;;;;;;;;14.70;99.90;;;;;;6183129;23;19924;-81
2022/10/10 05:40:41;;;;;;;;;;;14.70;99.90;;;;;;6183828;23;19921;-81
2022/10/10 05:43:07;;;;;;;;;;;14.70;99.90;;;;;;6180703;23;19987;-81
2022/10/10 05:45:34;;;;;;;;;;;14.70;99.90;;;;;;6183517;23;19920;-81
2022/10/10 05:48:01;;;;;;;;;;;14.70;99.90;;;;;;6183923;23;19920;-81
2022/10/10 05:50:39;;;;;;;;;;;14.70;99.90;;;;;;6183796;23;19983;-81
2022/10/10 05:53:06;;;;;;;;;;;14.70;99.90;;;;;;6183033;23;19948;-82
2022/10/10 05:55:32;;;;;;;;;;;14.70;99.90;;;;;;6183812;23;19931;-81
2022/10/10 05:57:59;;;;;;;;;;;14.80;99.90;;;;;;6183074;23;19987;-81
2022/10/10 06:00:26;;;;;;;;;;;14.80;99.90;;;;;;6184006;23;20261;-81
2022/10/10 06:02:52;;;;;;;;;;;14.70;99.90;;;;;;6183295;23;19995;-83
2022/10/10 06:05:20;;;;;;;;;;;14.70;99.90;;;;;;6184063;23;19924;-82
2022/10/10 06:07:47;;;;;;;;;;;14.70;99.90;;;;;;6184231;23;19926;-81
2022/10/10 06:10:34;;;;;;;;;;;14.70;99.90;;;;;;6183578;23;19920;-81
2022/10/10 06:13:01;;;;;;;;;;;14.70;99.90;;;;;;6183726;23;19924;-81
2022/10/10 06:15:28;;;;;;;;;;;14.70;99.90;;;;;;6183108;23;19944;-81
2022/10/10 06:17:55;;;;;;;;;;;14.70;99.90;;;;;;6185109;23;20245;-80
2022/10/10 06:20:21;;;;;;;;;;;14.70;99.90;;;;;;6182911;23;19995;-80
2022/10/10 06:22:48;;;;;;;;;;;14.70;99.90;;;;;;6183657;23;19928;-80
2022/10/10 06:25:15;;;;;;;;;;;14.70;99.90;;;;;;6183313;23;19921;-82
2022/10/10 06:28:02;;;;;;;;;;;14.70;99.90;;;;;;6184867;23;19921;-81
2022/10/10 06:30:29;;;;;;;;;;;14.70;99.90;;;;;;6183288;23;20371;-80
2022/10/10 06:32:57;;;;;;;;;;;14.70;99.90;;;;;;6183685;23;19999;-82
2022/10/10 06:35:24;;;;;;;;;;;14.70;99.90;;;;;;6182537;23;19927;-81
2022/10/10 06:37:51;;;;;;;;;;;14.70;99.90;;;;;;6183452;23;19928;-81
2022/10/10 06:40:18;;;;;;;;;;;14.60;99.90;;;;;;6182874;23;20234;-80
2022/10/10 06:42:44;;;;;;;;;;;14.60;99.90;;;;;;6183651;23;19995;-81
2022/10/10 06:45:11;;;;;;;;;;;14.70;99.90;;;;;;6182659;23;19943;-81
2022/10/10 06:47:38;;;;;;;;;;;14.70;99.90;;;;;;6183408;23;19995;-80
2022/10/10 06:50:05;;;;;;;;;;;14.70;99.90;;;;;;6183339;23;20333;-80
2022/10/10 06:52:32;;;;;;;;;;;14.70;99.90;;;;;;6182473;23;19927;-80
2022/10/10 06:54:59;;;;;;;;;;;14.80;99.90;;;;;;6182953;23;19930;-80
2022/10/10 06:57:26;;;;;;;;;;;14.80;99.90;;;;;;6182728;23;19924;-82
2022/10/10 06:59:53;;;;;;;;;;;14.70;99.90;;;;;;6183356;23;19951;-81
2022/10/10 07:02:21;;;;;;;;;;;14.80;99.90;;;;;;6182517;23;19983;-80
2022/10/10 07:04:48;;;;;;;;;;;14.70;99.90;;;;;;6183174;23;20715;-80
2022/10/10 07:07:15;;;;;;;;;;;14.80;99.90;;;;;;6182426;23;19944;-80
2022/10/10 07:09:42;;;;;;;;;;;14.80;99.90;;;;;;6183263;23;19926;-80
2022/10/10 07:12:09;;;;;;;;;;;14.90;99.90;;;;;;6183152;23;19927;-80
2022/10/10 07:14:35;;;;;;;;;;;14.90;99.90;;;;;;6182605;23;20264;-81
2022/10/10 07:17:03;;;;;;;;;;;14.90;99.90;;;;;;6183068;23;20048;-80
2022/10/10 07:19:29;;;;;;;;;;;14.90;99.90;;;;;;6182200;23;19927;-80
2022/10/10 07:21:56;;;;;;;;;;;14.90;99.90;;;;;;6182526;23;19924;-80
2022/10/10 07:24:23;;;;;;;;;;;14.90;99.90;;;;;;6182557;23;19951;-80
2022/10/10 07:26:53;;;;;;;;;;;15.00;99.90;;;;;;6183301;23;19926;-80
2022/10/10 07:29:29;;;;;;;;;;;15.00;99.90;;;;;;6182403;23;19926;-80
2022/10/10 07:31:56;;;;;;;;;;;15.00;99.90;;;;;;6183059;23;19996;-80
2022/10/10 07:34:23;;;;;;;;;;;15.10;99.90;;;;;;6182377;23;20256;-80
2022/10/10 07:36:50;;;;;;;;;;;15.10;99.90;;;;;;6182999;23;19927;-80
2022/10/10 07:39:20;;;;;;;;;;;15.10;99.90;;;;;;6182436;23;19996;-80
2022/10/10 07:41:47;;;;;;;;;;;15.10;99.90;;;;;;6182788;23;19926;-80
2022/10/10 07:44:13;;;;;;;;;;;15.10;99.90;;;;;;6183288;23;20016;-80
2022/10/10 07:46:40;;;;;;;;;;;15.00;99.90;;;;;;6182476;23;19954;-80
2022/10/10 07:49:07;;;;;;;;;;;15.00;99.90;;;;;;6183115;23;19920;-80
2022/10/10 07:51:34;;;;;;;;;;;15.00;99.90;;;;;;6181431;23;19926;-80
2022/10/10 07:54:01;;;;;;;;;;;15.00;99.90;;;;;;6183101;23;19999;-80
2022/10/10 07:56:28;;;;;;;;;;;15.00;99.90;;;;;;6181842;23;19952;-80
2022/10/10 07:58:54;;;;;;;;;;;15.10;99.90;;;;;;6183034;23;19920;-82
2022/10/10 08:01:21;;;;;;;;;;;15.10;99.90;;;;;;6181991;23;20300;-81
2022/10/10 08:03:48;;;;;;;;;;;15.10;99.90;;;;;;6183184;23;19920;-80
2022/10/10 08:06:16;;;;;;;;;;;15.10;99.90;;;;;;6182508;23;19964;-79
2022/10/10 08:08:43;;;;;;;;;;;15.10;99.90;;;;;;6182662;23;19921;-80
2022/10/10 08:11:17;;;;;;;;;;;15.10;99.90;;;;;;6182645;23;19951;-79
2022/10/10 08:13:44;;;;;;;;;;;15.10;99.90;;;;;;6183777;23;19924;-80
2022/10/10 08:16:10;;;;;;;;;;;15.10;99.90;;;;;;6182862;23;20015;-80
2022/10/10 08:18:37;;;;;;;;;;;15.20;99.90;;;;;;6181886;23;19958;-80
2022/10/10 08:21:09;;;;;;;;;;;15.20;99.90;;;;;;6183050;23;19920;-80
2022/10/10 08:23:35;;;;;;;;;;;15.20;99.90;;;;;;6181951;23;19999;-80
2022/10/10 08:26:04;;;;;;;;;;;15.20;99.90;;;;;;6182712;23;19952;-80
2022/10/10 08:28:31;;;;;;;;;;;15.20;99.90;;;;;;6183630;23;19956;-80
2022/10/10 08:30:58;;;;;;;;;;;15.30;99.90;;;;;;6182600;23;19924;-81
2022/10/10 08:33:29;;;;;;;;;;;15.30;99.90;;;;;;6182012;23;20304;-80
2022/10/10 08:35:56;;;;;;;;;;;15.30;99.90;;;;;;6182473;23;19988;-80
2022/10/10 08:38:23;;;;;;;;;;;15.30;99.90;;;;;;6181713;23;20271;-80
2022/10/10 08:40:52;;;;;;;;;;;15.30;99.90;;;;;;6182684;23;19996;-81
2022/10/10 08:43:27;;;;;;;;;;;15.30;99.90;;;;;;6182090;23;19920;-80
2022/10/10 08:45:56;;;;;;;;;;;15.30;99.90;;;;;;6181318;23;20252;-80
2022/10/10 08:48:27;;;;;;;;;;;15.40;99.90;;;;;;6182596;23;19966;-80
2022/10/10 08:51:04;;;;;;;;;;;15.40;99.90;;;;;;6181717;23;19996;-80
2022/10/10 08:53:37;;;;;;;;;;;15.30;99.90;;;;;;6181534;23;20260;-80
2022/10/10 08:56:06;;;;;;;;;;;15.30;99.90;;;;;;6182990;23;19930;-81
2022/10/10 08:58:36;;;;;;;;;;;15.40;99.90;;;;;;6182021;23;19930;-80
2022/10/10 09:01:24;;;;;;;;;;;15.40;99.90;;;;;;6182457;23;20337;-80
2022/10/10 09:03:56;;;;;;;;;;;15.30;99.90;;;;;;6183925;23;19921;-79
2022/10/10 09:06:41;;;;;;;;;;;15.30;99.90;;;;;;6184051;23;19924;-80
2022/10/10 09:09:20;;;;;;;;;;;15.40;99.90;;;;;;6183500;23;19920;-80
2022/10/10 09:12:03;;;;;;;;;;;15.30;99.90;;;;;;6183160;23;20003;-80
2022/10/10 09:14:45;;;;;;;;;;;15.30;99.90;;;;;;6183985;23;19940;-80
2022/10/10 09:17:19;;;;;;;;;;;15.30;99.90;;;;;;6182911;23;19920;-82
2022/10/10 09:20:04;;;;;;;;;;;15.40;99.90;;;;;;6183103;23;19924;-79
2022/10/10 09:22:34;;;;;;;;;;;15.40;99.90;;;;;;6183149;23;19920;-79
2022/10/10 09:25:04;;;;;;;;;;;15.50;99.90;;;;;;6183093;23;19955;-80
2022/10/10 09:27:33;;;;;;;;;;;15.50;99.90;;;;;;6182751;23;19928;-80
2022/10/10 09:30:05;;;;;;;;;;;15.60;99.90;;;;;;6183461;23;19926;-79
2022/10/10 09:32:35;;;;;;;;;;;15.60;99.90;;;;;;6182829;23;20389;-79
2022/10/10 09:35:13;;;;;;;;;;;15.70;99.90;;;;;;6183742;23;20260;-80
2022/10/10 09:37:40;;;;;;;;;;;15.70;99.90;;;;;;6183161;23;19999;-79
2022/10/10 09:40:13;;;;;;;;;;;15.80;99.90;;;;;;6183397;23;19921;-79
2022/10/10 09:42:42;;;;;;;;;;;15.80;99.90;;;;;;6182713;23;20234;-80
2022/10/10 09:45:15;;;;;;;;;;;15.80;99.90;;;;;;6183298;23;19920;-79
2022/10/10 09:47:42;;;;;;;;;;;15.80;99.90;;;;;;6182061;23;19927;-79
2022/10/10 09:50:12;;;;;;;;;;;15.80;99.90;;;;;;6183372;23;20260;-79
2022/10/10 09:52:39;;;;;;;;;;;15.90;99.90;;;;;;6182164;23;19958;-80
2022/10/10 09:55:25;;;;;;;;;;;16.00;99.90;;;;;;6182857;23;20003;-80
2022/10/10 09:57:53;;;;;;;;;;;16.00;99.90;;;;;;6183053;23;19921;-79
2022/10/10 10:00:22;;;;;;;;;;;16.10;99.90;;;;;;6183222;23;19951;-79
2022/10/10 10:03:01;;;;;;;;;;;16.20;99.90;;;;;;6182590;23;19942;-79
2022/10/10 10:05:28;;;;;;;;;;;16.20;99.90;;;;;;6182197;23;19920;-80
2022/10/10 10:07:55;;;;;;;;;;;16.20;99.90;;;;;;6183560;23;20004;-79
2022/10/10 10:10:23;;;;;;;;;;;16.30;99.90;;;;;;6183597;23;19955;-79
2022/10/10 10:12:51;;;;;;;;;;;16.40;99.90;;;;;;6182493;23;19920;-79
2022/10/10 10:15:17;;;;;;;;;;;16.40;99.90;;;;;;6184175;23;20294;-79
2022/10/10 10:17:44;;;;;;;;;;;16.40;99.90;;;;;;6182120;23;20260;-79
2022/10/10 10:20:30;;;;;;;;;;;16.40;99.90;;;;;;6183453;23;19924;-79
2022/10/10 10:22:57;;;;;;;;;;;16.40;99.90;;;;;;6182481;23;20249;-80
2022/10/10 10:25:30;;;;;;;;;;;16.50;99.90;;;;;;6182918;23;19924;-79
2022/10/10 10:28:17;;;;;;;;;;;16.70;99.90;;;;;;6182142;23;19943;-80
2022/10/10 10:30:45;;;;;;;;;;;16.70;99.90;;;;;;6181609;23;19944;-80
2022/10/10 10:33:30;;;;;;;;;;;16.80;99.90;;;;;;6182842;23;19920;-80
2022/10/10 10:36:06;;;;;;;;;;;16.90;99.90;;;;;;6182246;23;19920;-80
2022/10/10 10:38:43;;;;;;;;;;;17.00;99.90;;;;;;6182743;23;19931;-79
2022/10/10 10:41:19;;;;;;;;;;;17.00;99.90;;;;;;6182367;23;19940;-80
2022/10/10 10:44:00;;;;;;;;;;;17.00;99.90;;;;;;6181902;23;19924;-82
2022/10/10 10:46:34;;;;;;;;;;;17.10;99.90;;;;;;6182718;23;20265;-80
2022/10/10 10:49:14;;;;;;;;;;;17.10;99.90;;;;;;6181691;23;20359;-80
2022/10/10 10:51:46;;;;;;;;;;;17.20;99.90;;;;;;6184171;23;19925;-80
2022/10/10 10:54:33;;;;;;;;;;;17.30;99.90;;;;;;6182357;23;20011;-82
2022/10/10 10:57:23;;;;;;;;;;;17.30;99.90;;;;;;6173694;23;20280;-81
2022/10/10 11:00:13;;;;;;;;;;;17.40;99.90;;;;;;6182114;23;19920;-80
2022/10/10 11:03:20;;;;;;;;;;;17.40;99.90;;;;;;6182101;23;19924;-79
2022/10/10 11:06:25;;;;;;;;;;;17.40;99.90;;;;;;6179859;23;19921;-80
2022/10/10 11:09:12;;;;;;;;;;;17.40;99.90;;;;;;6182140;23;20238;-80
2022/10/10 11:11:58;;;;;;;;;;;17.30;98.60;;;;;;6183343;23;19920;-81
2022/10/10 11:14:46;;;;;;;;;;;17.30;98.20;;;;;;6183003;23;19920;-80
2022/10/10 11:17:12;;;;;;;;;;;17.30;98.30;;;;;;6182104;23;20016;-81
2022/10/10 11:19:45;;;;;;;;;;;17.20;96.00;;;;;;6182583;23;19929;-78
2022/10/10 11:22:15;;;;;;;;;;;17.20;98.00;;;;;;6179852;23;20266;-81
2022/10/10 11:24:44;;;;;;;;;;;17.20;93.80;;;;;;6182072;23;19927;-80
2022/10/10 11:27:20;;;;;;;;;;;17.20;96.40;;;;;;6182206;23;19995;-80
2022/10/10 11:29:56;;;;;;;;;;;17.30;96.90;;;;;;6184880;23;19990;-79
2022/10/10 11:32:36;;;;;;;;;;;17.30;97.20;;;;;;6182411;23;19951;-80
2022/10/10 11:35:17;;;;;;;;;;;17.40;97.20;;;;;;6182530;23;20401;-80
2022/10/10 11:37:46;;;;;;;;;;;17.40;96.90;;;;;;6182508;23;20253;-80
2022/10/10 11:40:35;;;;;;;;;;;17.30;97.50;;;;;;6181792;23;20002;-80
2022/10/10 11:43:05;;;;;;;;;;;17.30;97.40;;;;;;6181107;23;19920;-80
2022/10/10 11:45:38;;;;;;;;;;;17.30;98.40;;;;;;6182003;23;19951;-80
2022/10/10 11:48:27;;;;;;;;;;;17.40;98.70;;;;;;6180722;23;20008;-80
2022/10/10 11:50:57;;;;;;;;;;;17.40;97.70;;;;;;6182609;23;19987;-79
2022/10/10 11:53:30;;;;;;;;;;;17.40;99.10;;;;;;6182082;23;19920;-79
2022/10/10 11:56:09;;;;;;;;;;;17.40;96.30;;;;;;6182904;23;19920;-80
2022/10/10 11:58:41;;;;;;;;;;;17.50;97.10;;;;;;6182674;23;19956;-79
2022/10/10 12:01:18;;;;;;;;;;;17.50;97.90;;;;;;6183061;23;19991;-79
2022/10/10 12:03:45;;;;;;;;;;;17.60;97.90;;;;;;6182666;23;20257;-80
2022/10/10 12:06:21;;;;;;;;;;;17.60;96.30;;;;;;6182727;23;19927;-80
2022/10/10 12:08:51;;;;;;;;;;;17.60;95.60;;;;;;6182137;23;19920;-80
2022/10/10 12:11:20;;;;;;;;;;;17.60;95.60;;;;;;6182801;23;19927;-80
2022/10/10 12:13:55;;;;;;;;;;;17.60;97.40;;;;;;6183586;23;19951;-80
2022/10/10 12:16:24;;;;;;;;;;;17.60;95.90;;;;;;6182805;23;19998;-80
2022/10/10 12:19:14;;;;;;;;;;;17.60;96.60;;;;;;6182560;23;19924;-81
2022/10/10 12:21:53;;;;;;;;;;;17.60;98.00;;;;;;6182236;23;19999;-81
2022/10/10 12:24:20;;;;;;;;;;;17.70;98.20;;;;;;6183028;23;19995;-80
2022/10/10 12:26:53;;;;;;;;;;;17.60;95.80;;;;;;6182135;23;19920;-80
2022/10/10 12:29:39;;;;;;;;;;;17.70;96.60;;;;;;6182057;23;19920;-81
2022/10/10 12:32:16;;;;;;;;;;;17.80;97.60;;;;;;6181479;23;19940;-82
2022/10/10 12:34:55;;;;;;;;;;;18.00;97.50;;;;;;6183355;23;19948;-81
2022/10/10 12:37:26;;;;;;;;;;;17.90;92.90;;;;;;6183180;23;19948;-81
2022/10/10 12:40:05;;;;;;;;;;;18.00;93.80;;;;;;6183287;23;19930;-81
2022/10/10 12:42:38;;;;;;;;;;;18.00;92.10;;;;;;6184486;23;19924;-81
2022/10/10 12:45:23;;;;;;;;;;;18.20;92.10;;;;;;6183583;23;19984;-80
2022/10/10 12:47:50;;;;;;;;;;;18.20;89.50;;;;;;6183961;23;19991;-80
2022/10/10 12:50:36;;;;;;;;;;;18.10;89.80;;;;;;6185323;23;19967;-80
2022/10/10 12:53:05;;;;;;;;;;;18.10;88.60;;;;;;6183671;23;19927;-81
2022/10/10 12:55:40;;;;;;;;;;;18.00;89.50;;;;;;6184750;23;19920;-81
2022/10/10 12:58:09;;;;;;;;;;;18.00;90.60;;;;;;6183745;23;19991;-81
2022/10/10 13:00:43;;;;;;;;;;;18.00;88.60;;;;;;6184060;23;19924;-81
2022/10/10 13:03:31;;;;;;;;;;;18.10;89.90;;;;;;6184364;23;20003;-81
2022/10/10 13:06:02;;;;;;;;;;;18.20;89.60;;;;;;6173621;23;20387;-80
2022/10/10 13:08:29;;;;;;;;;;;18.20;88.60;;;;;;6184575;23;19996;-81
2022/10/10 13:11:03;;;;;;;;;;;18.30;87.80;;;;;;6183847;23;19991;-81
2022/10/10 13:13:31;;;;;;;;;;;18.30;88.90;;;;;;6185948;23;19924;-81
2022/10/10 13:15:58;;;;;;;;;;;18.40;87.40;;;;;;6183488;23;20256;-80
2022/10/10 13:18:51;;;;;;;;;;;18.40;85.30;;;;;;6184464;23;20335;-80
2022/10/10 13:21:23;;;;;;;;;;;18.30;85.90;;;;;;6179386;23;19928;-80
2022/10/10 13:23:51;;;;;;;;;;;18.40;87.70;;;;;;6184550;23;20325;-80
2022/10/10 13:26:39;;;;;;;;;;;18.40;87.70;;;;;;6183739;23;19944;-80
2022/10/10 13:29:14;;;;;;;;;;;18.40;85.90;;;;;;6185188;23;19994;-81
2022/10/10 13:31:41;;;;;;;;;;;18.50;85.20;;;;;;6183942;23;19925;-80
2022/10/10 13:34:12;;;;;;;;;;;18.50;85.10;;;;;;6183765;23;19920;-80
2022/10/10 13:36:39;;;;;;;;;;;18.50;83.90;;;;;;6183378;23;19920;-81
2022/10/10 13:39:06;;;;;;;;;;;18.60;83.50;;;;;;6183725;23;20360;-81
2022/10/10 13:41:33;;;;;;;;;;;18.60;83.20;;;;;;6183457;23;19931;-80
2022/10/10 13:44:00;;;;;;;;;;;18.60;82.20;;;;;;6184142;23;20264;-80
2022/10/10 13:46:30;;;;;;;;;;;18.70;83.20;;;;;;6183705;23;19928;-80
2022/10/10 13:48:57;;;;;;;;;;;18.70;83.10;;;;;;6183661;23;20344;-81
2022/10/10 13:51:42;;;;;;;;;;;18.70;81.90;;;;;;6183028;23;19995;-80
2022/10/10 13:54:28;;;;;;;;;;;18.60;81.50;;;;;;6183883;23;19943;-80
2022/10/10 13:57:00;;;;;;;;;;;18.60;84.50;;;;;;6183367;23;19920;-80
2022/10/10 13:59:28;;;;;;;;;;;18.60;84.10;;;;;;6184010;23;20313;-81
2022/10/10 14:02:03;;;;;;;;;;;18.70;84.90;;;;;;6183200;23;19944;-81
2022/10/10 14:04:49;;;;;;;;;;;18.70;84.30;;;;;;6184085;23;19924;-80
2022/10/10 14:07:21;;;;;;;;;;;18.70;84.90;;;;;;6184784;23;19932;-81
2022/10/10 14:09:50;;;;;;;;;;;18.70;83.80;;;;;;6184051;23;19959;-81
2022/10/10 14:12:31;;;;;;;;;;;18.80;83.50;;;;;;6183583;23;20015;-80
2022/10/10 14:14:58;;;;;;;;;;;18.90;82.90;;;;;;6183181;23;19920;-81
2022/10/10 14:17:26;;;;;;;;;;;18.70;78.50;;;;;;6183600;23;19948;-81
2022/10/10 14:19:53;;;;;;;;;;;18.60;79.40;;;;;;6184080;23;19920;-81
2022/10/10 14:22:20;;;;;;;;;;;18.60;81.90;;;;;;6182355;23;20333;-80
2022/10/10 14:24:47;;;;;;;;;;;18.60;80.80;;;;;;6183726;23;19920;-81
2022/10/10 14:27:24;;;;;;;;;;;18.70;81.20;;;;;;6183087;23;19947;-81
2022/10/10 14:29:52;;;;;;;;;;;18.80;81.00;;;;;;6183498;23;19967;-81
2022/10/10 14:32:19;;;;;;;;;;;18.80;78.20;;;;;;6182496;23;19920;-81
2022/10/10 14:34:46;;;;;;;;;;;18.70;81.20;;;;;;6183417;23;19990;-81
2022/10/10 14:37:15;;;;;;;;;;;18.70;80.90;;;;;;6182977;23;19925;-80